createdAt,value
2023-04-11T00:01:27.399Z,8.66
2023-04-11T00:04:01.233Z,8.60
2023-04-11T00:06:34.196Z,8.58
2023-04-11T00:09:07.267Z,8.55
2023-04-11T00:11:40.098Z,8.55
2023-04-11T00:14:12.828Z,8.57
2023-04-11T00:16:46.263Z,8.56
2023-04-11T00:19:20.811Z,8.56
2023-04-11T00:21:54.835Z,8.58
2023-04-11T00:24:28.621Z,8.62
2023-04-11T00:27:01.666Z,8.58
2023-04-11T00:29:35.817Z,8.59
2023-04-11T00:32:08.741Z,8.59
2023-04-11T00:34:41.314Z,8.58
2023-04-11T00:37:14.608Z,8.54
2023-04-11T00:39:48.678Z,8.52
2023-04-11T00:42:21.386Z,8.51
2023-04-11T00:44:54.969Z,8.48
2023-04-11T00:47:27.318Z,8.48
2023-04-11T00:50:01.571Z,8.45
2023-04-11T00:52:36.077Z,8.42
2023-04-11T00:55:09.682Z,8.38
2023-04-11T00:57:43.845Z,8.36
2023-04-11T01:00:17.040Z,8.34
2023-04-11T01:02:51.115Z,8.33
2023-04-11T01:05:24.673Z,8.31
2023-04-11T01:07:57.539Z,8.31
2023-04-11T01:10:31.995Z,8.31
2023-04-11T01:13:04.488Z,8.29
2023-04-11T01:15:39.759Z,8.25
2023-04-11T01:18:13.811Z,8.22
2023-04-11T01:20:46.619Z,8.19
2023-04-11T01:23:28.486Z,8.18
2023-04-11T01:26:01.313Z,8.16
2023-04-11T01:28:34.004Z,8.12
2023-04-11T01:31:08.516Z,8.12
2023-04-11T01:33:41.368Z,8.08
2023-04-11T01:36:13.783Z,8.07
2023-04-11T01:38:47.026Z,8.05
2023-04-11T01:41:19.777Z,8.03
2023-04-11T01:43:53.197Z,8.04
2023-04-11T01:46:26.924Z,8.07
2023-04-11T01:49:02.909Z,8.08
2023-04-11T01:51:37.546Z,8.13
2023-04-11T01:54:10.604Z,8.15
2023-04-11T01:56:43.150Z,8.16
2023-04-11T01:59:16.105Z,8.15
2023-04-11T02:01:49.608Z,8.14
2023-04-11T02:04:22.465Z,8.11
2023-04-11T02:06:55.415Z,8.04
2023-04-11T02:09:28.262Z,7.97
2023-04-11T02:12:01.483Z,7.94
2023-04-11T02:14:46.449Z,7.89
2023-04-11T02:17:21.148Z,7.89
2023-04-11T02:19:54.961Z,7.83
2023-04-11T02:22:28.221Z,7.77
2023-04-11T02:25:01.257Z,7.74
2023-04-11T02:27:36.418Z,7.73
2023-04-11T02:30:10.473Z,7.74
2023-04-11T02:32:44.617Z,7.72
2023-04-11T02:35:20.281Z,7.68
2023-04-11T02:37:53.144Z,7.60
2023-04-11T02:40:25.642Z,7.58
2023-04-11T02:42:58.470Z,7.59
2023-04-11T02:45:31.608Z,7.54
2023-04-11T02:48:04.956Z,7.53
2023-04-11T02:50:41.230Z,7.51
2023-04-11T02:53:15.077Z,7.47
2023-04-11T02:55:50.029Z,7.45
2023-04-11T02:58:26.159Z,7.42
2023-04-11T03:00:59.516Z,7.39
2023-04-11T03:03:33.783Z,7.37
2023-04-11T03:06:08.317Z,7.34
2023-04-11T03:08:41.569Z,7.32
2023-04-11T03:11:14.057Z,7.30
2023-04-11T03:13:47.428Z,7.28
2023-04-11T03:16:20.734Z,7.25
2023-04-11T03:18:53.927Z,7.22
2023-04-11T03:21:27.502Z,7.23
2023-04-11T03:24:01.157Z,7.23
2023-04-11T03:26:35.185Z,7.23
2023-04-11T03:29:08.528Z,7.23
2023-04-11T03:31:43.677Z,7.21
2023-04-11T03:34:18.149Z,7.20
2023-04-11T03:36:50.537Z,7.22
2023-04-11T03:39:24.374Z,7.24
2023-04-11T03:41:57.974Z,7.26
2023-04-11T03:44:31.499Z,7.31
2023-04-11T03:47:04.081Z,7.37
2023-04-11T03:49:39.800Z,7.40
2023-04-11T03:52:14.586Z,7.45
2023-04-11T03:54:47.994Z,7.52
2023-04-11T03:57:20.934Z,7.59
2023-04-11T03:59:55.244Z,7.66
2023-04-11T04:02:28.210Z,7.73
2023-04-11T04:05:01.790Z,7.83
2023-04-11T04:07:36.791Z,7.93
2023-04-11T04:10:12.015Z,8.03
2023-04-11T04:12:45.836Z,8.11
2023-04-11T04:15:21.571Z,8.24
2023-04-11T04:17:55.545Z,8.34
2023-04-11T04:20:29.704Z,8.45
2023-04-11T04:23:05.651Z,8.55
2023-04-11T04:25:41.955Z,8.63
2023-04-11T04:28:16.743Z,8.72
2023-04-11T04:30:53.825Z,8.79
2023-04-11T04:33:28.704Z,8.87
2023-04-11T04:36:04.582Z,8.90
2023-04-11T04:38:38.718Z,8.99
2023-04-11T04:41:14.626Z,9.09
2023-04-11T04:43:49.060Z,9.20
2023-04-11T04:46:24.055Z,9.33
2023-04-11T04:48:56.560Z,9.47
2023-04-11T04:51:30.362Z,9.63
2023-04-11T04:54:04.953Z,9.82
2023-04-11T04:56:37.756Z,9.96
2023-04-11T04:59:13.402Z,10.08
2023-04-11T05:01:45.911Z,10.21
2023-04-11T05:04:19.614Z,10.37
2023-04-11T05:06:54.368Z,10.49
2023-04-11T05:09:29.408Z,10.66
2023-04-11T05:12:05.163Z,10.80
2023-04-11T05:14:39.863Z,10.93
2023-04-11T05:17:12.916Z,11.08
2023-04-11T05:19:46.358Z,11.22
2023-04-11T05:22:18.957Z,11.38
2023-04-11T05:24:53.818Z,11.56
2023-04-11T05:27:27.461Z,11.78
2023-04-11T05:30:01.380Z,11.96
2023-04-11T05:32:35.889Z,12.12
2023-04-11T05:35:10.913Z,12.26
2023-04-11T05:37:49.275Z,12.43
2023-04-11T05:40:22.812Z,12.69
2023-04-11T05:42:55.472Z,12.86
2023-04-11T05:45:28.669Z,13.07
2023-04-11T05:48:04.301Z,13.24
2023-04-11T05:50:37.603Z,13.44
2023-04-11T05:53:10.777Z,13.67
2023-04-11T05:55:43.320Z,13.93
2023-04-11T05:58:16.585Z,14.15
2023-04-11T06:00:50.108Z,14.37
2023-04-11T06:03:23.335Z,14.60
2023-04-11T06:05:57.155Z,14.83
2023-04-11T06:08:31.974Z,15.10
2023-04-11T06:11:04.836Z,15.29
2023-04-11T06:13:37.912Z,15.40
2023-04-11T06:16:11.466Z,15.62
2023-04-11T06:18:44.050Z,15.90
2023-04-11T06:21:16.628Z,16.12
2023-04-11T06:23:49.600Z,16.30
2023-04-11T06:26:22.393Z,16.53
2023-04-11T06:28:55.370Z,16.74
2023-04-11T06:31:27.908Z,16.94
2023-04-11T06:34:04.571Z,17.23
2023-04-11T06:36:37.726Z,17.45
2023-04-11T06:39:10.429Z,17.70
2023-04-11T06:41:43.997Z,17.79
2023-04-11T06:44:17.866Z,17.89
2023-04-11T06:46:50.930Z,18.05
2023-04-11T06:49:24.090Z,18.06
2023-04-11T06:51:56.745Z,18.01
2023-04-11T06:54:30.881Z,17.93
2023-04-11T06:57:04.087Z,17.89
2023-04-11T06:59:37.216Z,17.93
2023-04-11T07:02:09.987Z,17.88
2023-04-11T07:04:42.827Z,17.97
2023-04-11T07:07:15.662Z,18.06
2023-04-11T07:09:48.868Z,18.04
2023-04-11T07:12:21.546Z,18.12
2023-04-11T07:14:54.696Z,18.36
2023-04-11T07:17:28.329Z,18.62
2023-04-11T07:20:01.353Z,18.83
2023-04-11T07:22:34.434Z,18.86
2023-04-11T07:25:20.071Z,18.93
2023-04-11T07:27:53.566Z,19.00
2023-04-11T07:30:26.552Z,19.07
2023-04-11T07:32:59.974Z,19.05
2023-04-11T07:35:36.866Z,19.08
2023-04-11T07:38:10.653Z,19.06
2023-04-11T07:40:43.182Z,19.04
2023-04-11T07:43:16.077Z,19.10
2023-04-11T07:45:48.465Z,19.23
2023-04-11T07:48:22.824Z,19.34
2023-04-11T07:50:55.463Z,19.53
2023-04-11T07:53:28.557Z,19.78
2023-04-11T07:56:01.188Z,19.99
2023-04-11T07:58:34.037Z,20.07
2023-04-11T08:01:09.930Z,20.22
2023-04-11T08:03:44.422Z,20.43
2023-04-11T08:06:17.141Z,20.46
2023-04-11T08:08:50.328Z,20.50
2023-04-11T08:11:22.879Z,20.52
2023-04-11T08:13:57.298Z,20.58
2023-04-11T08:16:31.197Z,20.56
2023-04-11T08:19:04.240Z,20.48
2023-04-11T08:21:37.394Z,20.34
2023-04-11T08:24:11.631Z,20.35
2023-04-11T08:26:44.093Z,20.34
2023-04-11T08:29:19.178Z,20.36
2023-04-11T08:31:53.433Z,20.33
2023-04-11T08:34:25.867Z,20.28
2023-04-11T08:36:58.726Z,20.17
2023-04-11T08:39:31.764Z,19.88
2023-04-11T08:42:04.474Z,19.66
2023-04-11T08:44:37.414Z,19.56
2023-04-11T08:47:10.686Z,19.45
2023-04-11T08:49:43.984Z,19.43
2023-04-11T08:52:18.230Z,19.58
2023-04-11T08:54:55.246Z,19.71
2023-04-11T08:57:31.693Z,19.71
2023-04-11T09:00:10.536Z,19.72
2023-04-11T09:03:07.738Z,19.50
2023-04-11T09:05:42.679Z,19.51
2023-04-11T09:08:17.807Z,19.62
2023-04-11T09:10:50.499Z,19.48
2023-04-11T09:13:28.236Z,19.38
2023-04-11T09:16:16.596Z,19.47
2023-04-11T09:18:49.258Z,19.67
2023-04-11T09:21:22.356Z,19.82
2023-04-11T09:23:55.559Z,19.81
2023-04-11T09:26:30.841Z,19.98
2023-04-11T09:29:04.184Z,20.27
2023-04-11T09:31:45.295Z,20.47
2023-04-11T09:34:21.638Z,20.42
2023-04-11T09:36:57.702Z,20.14
2023-04-11T09:39:31.201Z,19.88
2023-04-11T09:42:05.082Z,19.71
2023-04-11T09:44:39.630Z,19.83
2023-04-11T09:47:12.414Z,19.88
2023-04-11T09:49:46.364Z,19.79
2023-04-11T09:52:19.294Z,19.67
2023-04-11T09:54:51.756Z,19.61
2023-04-11T09:57:24.486Z,19.51
2023-04-11T09:59:56.845Z,19.65
2023-04-11T10:02:30.550Z,19.79
2023-04-11T10:05:04.448Z,19.71
2023-04-11T10:08:06.605Z,19.53
2023-04-11T10:10:39.080Z,19.49
2023-04-11T10:13:49.424Z,19.37
2023-04-11T10:16:23.710Z,19.18
2023-04-11T10:19:02.003Z,19.07
2023-04-11T10:21:41.164Z,19.12
2023-04-11T10:24:18.177Z,19.11
2023-04-11T10:26:58.810Z,18.78
2023-04-11T10:29:37.730Z,18.65
2023-04-11T10:32:20.447Z,18.81
2023-04-11T10:34:58.999Z,19.13
2023-04-11T10:37:37.645Z,19.15
2023-04-11T10:43:09.547Z,19.04
2023-04-11T10:45:42.889Z,19.23
2023-04-11T10:48:17.098Z,19.31
2023-04-11T10:50:49.817Z,19.35
2023-04-11T10:53:37.238Z,19.28
2023-04-11T10:56:10.486Z,19.22
2023-04-11T10:58:43.936Z,19.45
2023-04-11T11:01:31.743Z,19.69
2023-04-11T11:03:57.145Z,20.09
2023-04-11T11:06:31.178Z,20.37
2023-04-11T11:09:07.102Z,20.54
2023-04-11T11:11:40.414Z,20.44
2023-04-11T11:14:13.708Z,20.24
2023-04-11T11:16:47.402Z,20.05
2023-04-11T11:19:19.813Z,19.90
2023-04-11T11:21:55.747Z,19.78
2023-04-11T11:24:28.741Z,19.60
2023-04-11T11:27:03.429Z,19.38
2023-04-11T11:29:40.775Z,19.20
2023-04-11T11:32:25.370Z,19.00
2023-04-11T11:34:59.037Z,18.83
2023-04-11T11:37:31.592Z,18.78
2023-04-11T11:40:06.384Z,18.87
2023-04-11T11:42:41.189Z,18.92
2023-04-11T11:45:23.742Z,18.88
2023-04-11T11:47:56.535Z,18.68
2023-04-11T11:50:33.167Z,18.49
2023-04-11T11:53:16.175Z,18.33
2023-04-11T11:55:48.913Z,18.18
2023-04-11T11:58:23.092Z,17.90
2023-04-11T12:00:55.936Z,17.71
2023-04-11T12:03:30.170Z,17.62
2023-04-11T12:06:03.560Z,17.60
2023-04-11T12:08:38.202Z,17.58
2023-04-11T12:11:13.133Z,17.60
2023-04-11T12:16:18.724Z,17.61
2023-04-11T12:18:51.959Z,17.53
2023-04-11T12:21:24.548Z,17.51
2023-04-11T12:23:57.601Z,17.49
2023-04-11T12:26:31.092Z,17.61
2023-04-11T12:29:05.677Z,17.89
2023-04-11T12:31:39.002Z,18.09
2023-04-11T12:34:11.714Z,18.10
2023-04-11T12:36:45.064Z,18.05
2023-04-11T12:39:18.106Z,18.03
2023-04-11T12:41:50.914Z,17.94
2023-04-11T12:44:24.654Z,17.83
2023-04-11T12:46:58.164Z,17.78
2023-04-11T12:49:31.008Z,17.76
2023-04-11T12:52:04.408Z,17.71
2023-04-11T12:54:37.723Z,17.62
2023-04-11T12:57:12.715Z,17.54
2023-04-11T12:59:45.372Z,17.45
2023-04-11T13:02:19.068Z,17.40
2023-04-11T13:04:55.932Z,17.38
2023-04-11T13:07:30.094Z,17.36
2023-04-11T13:10:09.636Z,17.39
2023-04-11T13:12:45.004Z,17.40
2023-04-11T13:15:18.423Z,17.46
2023-04-11T13:17:52.011Z,17.49
2023-04-11T13:20:24.667Z,17.48
2023-04-11T13:22:57.612Z,17.46
2023-04-11T13:25:31.188Z,17.48
2023-04-11T13:28:04.196Z,17.54
2023-04-11T13:30:36.995Z,17.54
2023-04-11T13:33:11.030Z,17.55
2023-04-11T13:35:45.268Z,17.56
2023-04-11T13:38:20.174Z,17.51
2023-04-11T13:40:53.383Z,17.44
2023-04-11T13:43:26.419Z,17.43
2023-04-11T13:45:59.789Z,17.45
2023-04-11T13:48:34.416Z,17.49
2023-04-11T13:51:07.723Z,17.51
2023-04-11T13:53:40.559Z,17.57
2023-04-11T13:56:13.395Z,17.59
2023-04-11T13:58:45.738Z,17.56
2023-04-11T14:01:20.335Z,17.53
2023-04-11T14:03:53.776Z,17.45
2023-04-11T14:06:26.516Z,17.36
2023-04-11T14:09:00.037Z,17.32
2023-04-11T14:11:34.534Z,17.29
2023-04-11T14:14:08.722Z,17.24
2023-04-11T14:16:41.754Z,17.23
2023-04-11T14:19:14.965Z,17.18
2023-04-11T14:21:49.136Z,17.12
2023-04-11T14:24:22.481Z,17.04
2023-04-11T14:26:57.091Z,17.02
2023-04-11T14:29:31.202Z,17.05
2023-04-11T14:32:03.886Z,17.08
2023-04-11T14:34:37.122Z,17.05
2023-04-11T14:37:09.712Z,17.00
2023-04-11T14:39:43.203Z,16.96
2023-04-11T14:42:15.876Z,16.90
2023-04-11T14:44:49.950Z,16.85
2023-04-11T14:47:23.414Z,16.80
2023-04-11T14:49:57.767Z,16.75
2023-04-11T14:52:31.083Z,16.72
2023-04-11T14:55:03.886Z,16.66
2023-04-11T14:57:55.234Z,16.62
2023-04-11T15:00:28.739Z,16.58
2023-04-11T15:03:02.060Z,16.51
2023-04-11T15:05:34.637Z,16.43
2023-04-11T15:08:08.394Z,16.36
2023-04-11T15:10:41.608Z,16.32
2023-04-11T15:13:15.133Z,16.29
2023-04-11T15:15:48.692Z,16.23
2023-04-11T15:18:29.340Z,16.17
2023-04-11T15:21:03.687Z,16.12
2023-04-11T15:23:36.568Z,16.08
2023-04-11T15:26:09.035Z,16.02
2023-04-11T15:28:43.672Z,15.97
2023-04-11T15:31:17.779Z,15.93
2023-04-11T15:33:50.454Z,15.88
2023-04-11T15:36:23.609Z,15.83
2023-04-11T15:38:57.755Z,15.78
2023-04-11T15:44:13.696Z,15.66
2023-04-11T15:46:48.610Z,15.61
2023-04-11T15:49:20.638Z,15.58
2023-04-11T15:51:53.527Z,15.54
2023-04-11T15:54:26.618Z,15.51
2023-04-11T15:56:59.403Z,15.46
2023-04-11T15:59:32.131Z,15.43
2023-04-11T16:02:06.290Z,15.39
2023-04-11T16:04:39.776Z,15.36
2023-04-11T16:07:12.770Z,15.33
2023-04-11T16:09:45.218Z,15.30
2023-04-11T16:12:19.213Z,15.26
2023-04-11T16:14:52.557Z,15.22
2023-04-11T16:17:25.581Z,15.17
2023-04-11T16:19:58.553Z,15.14
2023-04-11T16:22:31.446Z,15.07
2023-04-11T16:25:10.807Z,15.03
2023-04-11T16:27:45.184Z,15.00
2023-04-11T16:30:18.947Z,14.97
2023-04-11T16:32:52.885Z,14.93
2023-04-11T16:35:25.892Z,14.90
2023-04-11T16:37:58.581Z,14.87
2023-04-11T16:40:32.044Z,14.84
2023-04-11T16:43:04.545Z,14.81
2023-04-11T16:45:38.019Z,14.76
2023-04-11T16:48:11.085Z,14.73
2023-04-11T16:50:43.816Z,14.71
2023-04-11T16:53:18.073Z,14.67
2023-04-11T16:55:51.838Z,14.65
2023-04-11T16:58:24.584Z,14.61
2023-04-11T17:00:58.696Z,14.59
2023-04-11T17:03:33.521Z,14.58
2023-04-11T17:06:15.144Z,14.54
2023-04-11T17:08:48.284Z,14.50
2023-04-11T17:11:21.081Z,14.45
2023-04-11T17:13:56.278Z,14.42
2023-04-11T17:16:29.384Z,14.40
2023-04-11T17:19:02.162Z,14.39
2023-04-11T17:21:35.796Z,14.38
2023-04-11T17:24:09.460Z,14.37
2023-04-11T17:26:42.561Z,14.34
2023-04-11T17:29:15.727Z,14.32
2023-04-11T17:34:35.476Z,14.32
2023-04-11T17:37:08.553Z,14.32
2023-04-11T17:39:42.266Z,14.32
2023-04-11T17:42:16.982Z,14.35
2023-04-11T17:44:50.627Z,14.36
2023-04-11T17:47:24.310Z,14.36
2023-04-11T17:49:58.216Z,14.34
2023-04-11T17:52:31.262Z,14.32
2023-04-11T17:55:06.474Z,14.27
2023-04-11T17:57:40.632Z,14.24
2023-04-11T18:00:18.507Z,14.23
2023-04-11T18:02:56.128Z,14.21
2023-04-11T18:05:32.278Z,14.17
2023-04-11T18:08:06.395Z,14.14
2023-04-11T18:10:39.948Z,14.11
2023-04-11T18:13:12.568Z,14.07
2023-04-11T18:15:45.838Z,14.03
2023-04-11T18:18:19.089Z,14.03
2023-04-11T18:20:52.087Z,14.06
2023-04-11T18:23:24.593Z,14.10
2023-04-11T18:25:57.476Z,14.16
2023-04-11T18:28:31.120Z,14.21
2023-04-11T18:31:06.420Z,14.24
2023-04-11T18:33:43.789Z,14.25
2023-04-11T18:36:14.151Z,14.25
2023-04-11T18:38:47.716Z,14.24
2023-04-11T18:41:20.922Z,14.24
2023-04-11T18:43:53.689Z,14.23
2023-04-11T18:46:26.358Z,14.21
2023-04-11T18:48:59.788Z,14.21
2023-04-11T18:51:35.677Z,14.17
2023-04-11T18:54:09.282Z,14.16
2023-04-11T18:56:45.092Z,14.16
2023-04-11T18:59:18.766Z,14.16
2023-04-11T19:01:54.634Z,14.17
2023-04-11T19:04:29.220Z,14.16
2023-04-11T19:07:01.990Z,14.15
2023-04-11T19:09:36.299Z,14.15
2023-04-11T19:12:11.736Z,14.14
2023-04-11T19:14:45.276Z,14.13
2023-04-11T19:17:18.724Z,14.13
2023-04-11T19:19:51.557Z,14.12
2023-04-11T19:22:24.109Z,14.12
2023-04-11T19:24:56.639Z,14.09
2023-04-11T19:27:29.056Z,14.08
2023-04-11T19:30:04.010Z,14.05
2023-04-11T19:32:39.895Z,14.02
2023-04-11T19:35:13.018Z,13.99
2023-04-11T19:37:46.392Z,13.96
2023-04-11T19:40:21.141Z,13.93
2023-04-11T19:42:53.852Z,13.91
2023-04-11T19:45:26.863Z,13.88
2023-04-11T19:48:00.558Z,13.86
2023-04-11T19:50:33.397Z,13.86
2023-04-11T19:53:06.303Z,13.84
2023-04-11T19:55:38.696Z,13.82
2023-04-11T19:58:11.762Z,13.82
2023-04-11T20:00:44.886Z,13.83
2023-04-11T20:03:18.375Z,13.82
2023-04-11T20:05:51.678Z,13.81
2023-04-11T20:08:25.963Z,13.80
2023-04-11T20:10:58.292Z,13.78
2023-04-11T20:13:31.299Z,13.77
2023-04-11T20:16:06.112Z,13.73
2023-04-11T20:18:39.240Z,13.69
2023-04-11T20:21:13.348Z,13.68
2023-04-11T20:23:45.737Z,13.64
2023-04-11T20:26:18.468Z,13.62
2023-04-11T20:28:50.944Z,13.63
2023-04-11T20:31:23.896Z,13.62
2023-04-11T20:33:57.152Z,13.61
2023-04-11T20:36:33.066Z,13.60
2023-04-11T20:39:06.500Z,13.60
2023-04-11T20:41:40.639Z,13.59
2023-04-11T20:44:13.611Z,13.60
2023-04-11T20:46:46.208Z,13.60
2023-04-11T20:49:19.126Z,13.56
2023-04-11T20:51:53.225Z,13.54
2023-04-11T20:54:26.526Z,13.49
2023-04-11T20:56:59.421Z,13.49
2023-04-11T20:59:34.497Z,13.46
2023-04-11T21:02:07.498Z,13.46
2023-04-11T21:04:40.472Z,13.47
2023-04-11T21:07:13.781Z,13.47
2023-04-11T21:09:47.065Z,13.48
2023-04-11T21:12:19.477Z,13.48
2023-04-11T21:14:52.042Z,13.48
2023-04-11T21:17:24.693Z,13.49
2023-04-11T21:19:57.341Z,13.48
2023-04-11T21:22:30.543Z,13.48
2023-04-11T21:25:04.909Z,13.47
2023-04-11T21:27:36.821Z,13.46
2023-04-11T21:30:10.936Z,13.46
2023-04-11T21:32:44.294Z,13.43
2023-04-11T21:35:16.812Z,13.40
2023-04-11T21:37:49.436Z,13.37
2023-04-11T21:40:21.949Z,13.33
2023-04-11T21:42:56.151Z,13.27
2023-04-11T21:45:29.222Z,13.22
2023-04-11T21:48:03.438Z,13.15
2023-04-11T21:50:36.770Z,13.09
2023-04-11T21:53:09.947Z,13.03
2023-04-11T21:55:47.349Z,12.97
2023-04-11T21:58:29.224Z,12.91
2023-04-11T22:00:54.387Z,12.89
2023-04-11T22:03:29.078Z,12.87
2023-04-11T22:06:02.368Z,12.84
2023-04-11T22:08:36.638Z,12.82
2023-04-11T22:11:10.467Z,12.78
2023-04-11T22:13:45.291Z,12.75
2023-04-11T22:16:17.666Z,12.73
2023-04-11T22:18:50.297Z,12.72
2023-04-11T22:21:26.447Z,12.70
2023-04-11T22:23:58.454Z,12.69
2023-04-11T22:26:33.225Z,12.65
2023-04-11T22:29:06.160Z,12.59
2023-04-11T22:31:39.227Z,12.54
2023-04-11T22:34:12.393Z,12.51
2023-04-11T22:36:45.629Z,12.49
2023-04-11T22:39:18.174Z,12.48
2023-04-11T22:41:52.668Z,12.45
2023-04-11T22:44:25.288Z,12.45
2023-04-11T22:47:06.403Z,12.43
2023-04-11T22:49:42.772Z,12.41
2023-04-11T22:52:15.793Z,12.41
2023-04-11T22:54:48.853Z,12.39
2023-04-11T22:57:21.511Z,12.38
2023-04-11T22:59:54.544Z,12.37
2023-04-11T23:02:28.904Z,12.36
2023-04-11T23:05:03.024Z,12.32
2023-04-11T23:07:36.070Z,12.32
2023-04-11T23:10:11.442Z,12.28
2023-04-11T23:12:45.320Z,12.27
2023-04-11T23:15:19.493Z,12.23
2023-04-11T23:17:52.897Z,12.15
2023-04-11T23:20:25.524Z,12.15
2023-04-11T23:22:59.393Z,12.13
2023-04-11T23:25:32.162Z,12.12
2023-04-11T23:28:05.529Z,12.08
2023-04-11T23:30:39.152Z,12.06
2023-04-11T23:33:13.408Z,12.03
2023-04-11T23:35:47.502Z,11.99
2023-04-11T23:38:21.657Z,11.97
2023-04-11T23:40:54.995Z,11.95
2023-04-11T23:43:28.327Z,11.94
2023-04-11T23:46:01.868Z,11.91
2023-04-11T23:48:35.409Z,11.89
2023-04-11T23:51:08.364Z,11.86
2023-04-11T23:53:42.662Z,11.86
2023-04-11T23:56:15.713Z,11.85
2023-04-11T23:58:50.538Z,11.82
